sensor_id;sensor_type;location;lat;lon;timestamp;P1;durP1;ratioP1;P2;durP2;ratioP2
29848;SDS011;16728;50.832;5.590;2023-08-12T00:00:10;19.40;;;16.13;;
29848;SDS011;16728;50.832;5.590;2023-08-12T00:03:13;23.48;;;16.25;;
29848;SDS011;16728;50.832;5.590;2023-08-12T00:06:16;20.40;;;15.75;;
29848;SDS011;16728;50.832;5.590;2023-08-12T00:09:18;20.00;;;15.07;;
29848;SDS011;16728;50.832;5.590;2023-08-12T00:12:19;21.42;;;15.52;;
29848;SDS011;16728;50.832;5.590;2023-08-12T00:15:21;18.77;;;14.73;;
29848;SDS011;16728;50.832;5.590;2023-08-12T00:18:23;25.95;;;14.48;;
29848;SDS011;16728;50.832;5.590;2023-08-12T00:21:26;19.88;;;14.70;;
29848;SDS011;16728;50.832;5.590;2023-08-12T00:24:27;19.48;;;13.80;;
29848;SDS011;16728;50.832;5.590;2023-08-12T00:27:29;18.98;;;13.10;;
29848;SDS011;16728;50.832;5.590;2023-08-12T00:30:32;18.10;;;14.20;;
29848;SDS011;16728;50.832;5.590;2023-08-12T00:33:34;20.02;;;13.88;;
29848;SDS011;16728;50.832;5.590;2023-08-12T00:36:35;18.58;;;14.05;;
29848;SDS011;16728;50.832;5.590;2023-08-12T00:39:38;19.70;;;13.73;;
29848;SDS011;16728;50.832;5.590;2023-08-12T00:42:40;20.92;;;14.55;;
29848;SDS011;16728;50.832;5.590;2023-08-12T00:45:42;20.58;;;14.85;;
29848;SDS011;16728;50.832;5.590;2023-08-12T00:48:45;20.85;;;14.00;;
29848;SDS011;16728;50.832;5.590;2023-08-12T00:51:47;19.73;;;13.60;;
29848;SDS011;16728;50.832;5.590;2023-08-12T00:54:50;20.13;;;13.95;;
29848;SDS011;16728;50.832;5.590;2023-08-12T00:57:52;23.27;;;14.10;;
29848;SDS011;16728;50.832;5.590;2023-08-12T01:00:54;19.20;;;14.10;;
29848;SDS011;16728;50.832;5.590;2023-08-12T01:03:57;20.80;;;13.00;;
29848;SDS011;16728;50.832;5.590;2023-08-12T01:06:59;23.15;;;12.95;;
29848;SDS011;16728;50.832;5.590;2023-08-12T01:10:01;20.30;;;11.57;;
29848;SDS011;16728;50.832;5.590;2023-08-12T01:13:14;18.95;;;11.55;;
29848;SDS011;16728;50.832;5.590;2023-08-12T01:16:32;17.13;;;11.88;;
29848;SDS011;16728;50.832;5.590;2023-08-12T01:19:38;13.75;;;10.48;;
29848;SDS011;16728;50.832;5.590;2023-08-12T01:22:41;17.13;;;11.05;;
29848;SDS011;16728;50.832;5.590;2023-08-12T01:25:45;17.00;;;11.13;;
29848;SDS011;16728;50.832;5.590;2023-08-12T01:28:47;16.08;;;11.25;;
29848;SDS011;16728;50.832;5.590;2023-08-12T01:31:51;19.67;;;11.45;;
29848;SDS011;16728;50.832;5.590;2023-08-12T01:38:08;22.63;;;12.18;;
29848;SDS011;16728;50.832;5.590;2023-08-12T01:41:11;18.08;;;12.55;;
29848;SDS011;16728;50.832;5.590;2023-08-12T01:44:15;17.48;;;12.43;;
29848;SDS011;16728;50.832;5.590;2023-08-12T01:47:17;22.87;;;13.37;;
29848;SDS011;16728;50.832;5.590;2023-08-12T01:50:19;18.48;;;12.23;;
29848;SDS011;16728;50.832;5.590;2023-08-12T01:53:23;16.35;;;12.10;;
29848;SDS011;16728;50.832;5.590;2023-08-12T01:56:24;21.83;;;12.45;;
29848;SDS011;16728;50.832;5.590;2023-08-12T01:59:27;19.17;;;12.25;;
29848;SDS011;16728;50.832;5.590;2023-08-12T02:02:29;18.70;;;12.52;;
29848;SDS011;16728;50.832;5.590;2023-08-12T02:05:34;22.40;;;13.13;;
29848;SDS011;16728;50.832;5.590;2023-08-12T02:08:38;21.55;;;14.20;;
29848;SDS011;16728;50.832;5.590;2023-08-12T02:11:40;20.83;;;13.10;;
29848;SDS011;16728;50.832;5.590;2023-08-12T02:14:42;20.42;;;14.50;;
29848;SDS011;16728;50.832;5.590;2023-08-12T02:17:44;19.02;;;13.57;;
29848;SDS011;16728;50.832;5.590;2023-08-12T02:20:47;17.98;;;12.30;;
29848;SDS011;16728;50.832;5.590;2023-08-12T02:23:49;16.58;;;13.27;;
29848;SDS011;16728;50.832;5.590;2023-08-12T02:26:51;18.50;;;13.13;;
29848;SDS011;16728;50.832;5.590;2023-08-12T02:29:54;19.40;;;13.50;;
29848;SDS011;16728;50.832;5.590;2023-08-12T02:32:55;20.85;;;13.23;;
29848;SDS011;16728;50.832;5.590;2023-08-12T02:35:57;18.88;;;13.55;;
29848;SDS011;16728;50.832;5.590;2023-08-12T02:39:00;21.98;;;14.18;;
29848;SDS011;16728;50.832;5.590;2023-08-12T02:42:02;21.43;;;15.10;;
29848;SDS011;16728;50.832;5.590;2023-08-12T02:45:04;19.30;;;15.27;;
29848;SDS011;16728;50.832;5.590;2023-08-12T02:48:06;23.15;;;15.48;;
29848;SDS011;16728;50.832;5.590;2023-08-12T02:51:09;22.50;;;17.05;;
29848;SDS011;16728;50.832;5.590;2023-08-12T02:54:11;22.27;;;16.27;;
29848;SDS011;16728;50.832;5.590;2023-08-12T02:57:13;21.25;;;16.60;;
29848;SDS011;16728;50.832;5.590;2023-08-12T03:00:15;22.73;;;16.98;;
29848;SDS011;16728;50.832;5.590;2023-08-12T03:03:17;23.80;;;17.95;;
29848;SDS011;16728;50.832;5.590;2023-08-12T03:06:19;25.02;;;17.15;;
29848;SDS011;16728;50.832;5.590;2023-08-12T03:09:22;23.07;;;17.60;;
29848;SDS011;16728;50.832;5.590;2023-08-12T03:12:24;21.92;;;17.35;;
29848;SDS011;16728;50.832;5.590;2023-08-12T03:15:25;22.20;;;17.38;;
29848;SDS011;16728;50.832;5.590;2023-08-12T03:18:27;28.35;;;17.60;;
29848;SDS011;16728;50.832;5.590;2023-08-12T03:21:29;25.80;;;18.00;;
29848;SDS011;16728;50.832;5.590;2023-08-12T03:24:31;28.25;;;18.15;;
29848;SDS011;16728;50.832;5.590;2023-08-12T03:27:36;23.67;;;17.25;;
29848;SDS011;16728;50.832;5.590;2023-08-12T03:30:38;24.27;;;17.17;;
29848;SDS011;16728;50.832;5.590;2023-08-12T03:33:40;24.77;;;16.58;;
29848;SDS011;16728;50.832;5.590;2023-08-12T03:36:42;23.10;;;15.98;;
29848;SDS011;16728;50.832;5.590;2023-08-12T03:39:44;23.77;;;17.08;;
29848;SDS011;16728;50.832;5.590;2023-08-12T03:42:46;24.55;;;15.32;;
29848;SDS011;16728;50.832;5.590;2023-08-12T03:45:48;20.42;;;15.73;;
29848;SDS011;16728;50.832;5.590;2023-08-12T03:48:50;22.30;;;15.95;;
29848;SDS011;16728;50.832;5.590;2023-08-12T03:51:52;22.65;;;16.05;;
29848;SDS011;16728;50.832;5.590;2023-08-12T03:54:54;18.00;;;15.70;;
29848;SDS011;16728;50.832;5.590;2023-08-12T03:57:56;19.95;;;15.27;;
29848;SDS011;16728;50.832;5.590;2023-08-12T04:00:58;23.88;;;16.63;;
29848;SDS011;16728;50.832;5.590;2023-08-12T04:04:13;19.50;;;15.43;;
29848;SDS011;16728;50.832;5.590;2023-08-12T04:07:15;19.77;;;14.43;;
29848;SDS011;16728;50.832;5.590;2023-08-12T04:10:17;19.65;;;14.65;;
29848;SDS011;16728;50.832;5.590;2023-08-12T04:13:19;18.98;;;13.30;;
29848;SDS011;16728;50.832;5.590;2023-08-12T04:16:21;16.13;;;11.98;;
29848;SDS011;16728;50.832;5.590;2023-08-12T04:19:23;16.15;;;12.07;;
29848;SDS011;16728;50.832;5.590;2023-08-12T04:22:25;17.38;;;11.30;;
29848;SDS011;16728;50.832;5.590;2023-08-12T04:25:27;15.10;;;10.25;;
29848;SDS011;16728;50.832;5.590;2023-08-12T04:28:29;18.27;;;9.88;;
29848;SDS011;16728;50.832;5.590;2023-08-12T04:31:31;11.20;;;8.80;;
29848;SDS011;16728;50.832;5.590;2023-08-12T04:34:33;13.60;;;8.30;;
29848;SDS011;16728;50.832;5.590;2023-08-12T04:37:35;12.53;;;8.50;;
29848;SDS011;16728;50.832;5.590;2023-08-12T04:40:38;10.07;;;6.78;;
29848;SDS011;16728;50.832;5.590;2023-08-12T04:43:41;8.93;;;6.32;;
29848;SDS011;16728;50.832;5.590;2023-08-12T04:46:43;8.38;;;5.97;;
29848;SDS011;16728;50.832;5.590;2023-08-12T04:49:45;7.15;;;4.88;;
29848;SDS011;16728;50.832;5.590;2023-08-12T04:52:47;9.77;;;4.80;;
29848;SDS011;16728;50.832;5.590;2023-08-12T04:55:52;8.27;;;4.15;;
29848;SDS011;16728;50.832;5.590;2023-08-12T04:58:55;7.70;;;3.67;;
29848;SDS011;16728;50.832;5.590;2023-08-12T05:01:58;5.43;;;3.28;;
29848;SDS011;16728;50.832;5.590;2023-08-12T05:05:18;4.97;;;3.22;;
29848;SDS011;16728;50.832;5.590;2023-08-12T05:08:20;8.15;;;3.13;;
29848;SDS011;16728;50.832;5.590;2023-08-12T05:11:22;3.72;;;2.88;;
29848;SDS011;16728;50.832;5.590;2023-08-12T05:14:24;3.88;;;2.92;;
29848;SDS011;16728;50.832;5.590;2023-08-12T05:17:25;5.88;;;3.30;;
29848;SDS011;16728;50.832;5.590;2023-08-12T05:20:27;4.07;;;3.17;;
29848;SDS011;16728;50.832;5.590;2023-08-12T05:23:29;3.92;;;3.22;;
29848;SDS011;16728;50.832;5.590;2023-08-12T05:26:33;5.03;;;3.13;;
29848;SDS011;16728;50.832;5.590;2023-08-12T05:29:35;4.55;;;2.75;;
29848;SDS011;16728;50.832;5.590;2023-08-12T05:32:37;3.95;;;2.67;;
29848;SDS011;16728;50.832;5.590;2023-08-12T05:35:39;4.30;;;3.20;;
29848;SDS011;16728;50.832;5.590;2023-08-12T05:38:40;3.90;;;3.10;;
29848;SDS011;16728;50.832;5.590;2023-08-12T05:41:42;6.45;;;3.03;;
29848;SDS011;16728;50.832;5.590;2023-08-12T05:44:44;3.95;;;2.58;;
29848;SDS011;16728;50.832;5.590;2023-08-12T05:47:46;3.25;;;2.50;;
29848;SDS011;16728;50.832;5.590;2023-08-12T05:50:48;6.25;;;2.83;;
29848;SDS011;16728;50.832;5.590;2023-08-12T05:53:50;4.38;;;2.72;;
29848;SDS011;16728;50.832;5.590;2023-08-12T05:56:53;4.45;;;2.63;;
29848;SDS011;16728;50.832;5.590;2023-08-12T05:59:55;2.97;;;2.47;;
29848;SDS011;16728;50.832;5.590;2023-08-12T06:02:57;3.78;;;2.55;;
29848;SDS011;16728;50.832;5.590;2023-08-12T06:06:02;3.30;;;2.42;;
29848;SDS011;16728;50.832;5.590;2023-08-12T06:09:04;5.75;;;2.20;;
29848;SDS011;16728;50.832;5.590;2023-08-12T06:12:07;8.18;;;2.65;;
29848;SDS011;16728;50.832;5.590;2023-08-12T06:15:09;2.40;;;2.15;;
29848;SDS011;16728;50.832;5.590;2023-08-12T06:18:11;2.80;;;2.42;;
29848;SDS011;16728;50.832;5.590;2023-08-12T06:21:13;3.00;;;2.45;;
29848;SDS011;16728;50.832;5.590;2023-08-12T06:24:15;2.72;;;2.45;;
29848;SDS011;16728;50.832;5.590;2023-08-12T06:27:17;6.28;;;2.55;;
29848;SDS011;16728;50.832;5.590;2023-08-12T06:30:20;2.50;;;2.15;;
29848;SDS011;16728;50.832;5.590;2023-08-12T06:33:22;2.78;;;1.95;;
29848;SDS011;16728;50.832;5.590;2023-08-12T06:36:24;2.67;;;1.60;;
29848;SDS011;16728;50.832;5.590;2023-08-12T06:39:26;1.48;;;1.38;;
29848;SDS011;16728;50.832;5.590;2023-08-12T06:42:28;1.50;;;1.40;;
29848;SDS011;16728;50.832;5.590;2023-08-12T06:45:31;1.77;;;1.35;;
29848;SDS011;16728;50.832;5.590;2023-08-12T06:48:33;1.63;;;1.52;;
29848;SDS011;16728;50.832;5.590;2023-08-12T06:51:35;2.00;;;1.55;;
29848;SDS011;16728;50.832;5.590;2023-08-12T06:54:37;2.72;;;1.63;;
29848;SDS011;16728;50.832;5.590;2023-08-12T06:57:39;1.73;;;1.58;;
29848;SDS011;16728;50.832;5.590;2023-08-12T07:00:41;2.60;;;1.83;;
29848;SDS011;16728;50.832;5.590;2023-08-12T07:03:43;2.45;;;1.73;;
29848;SDS011;16728;50.832;5.590;2023-08-12T07:06:45;2.00;;;1.80;;
29848;SDS011;16728;50.832;5.590;2023-08-12T07:09:47;3.20;;;1.92;;
29848;SDS011;16728;50.832;5.590;2023-08-12T07:12:49;2.78;;;1.90;;
29848;SDS011;16728;50.832;5.590;2023-08-12T07:15:51;3.47;;;1.90;;
29848;SDS011;16728;50.832;5.590;2023-08-12T07:18:53;3.08;;;2.22;;
29848;SDS011;16728;50.832;5.590;2023-08-12T07:21:55;3.90;;;2.17;;
29848;SDS011;16728;50.832;5.590;2023-08-12T07:24:57;2.35;;;2.05;;
29848;SDS011;16728;50.832;5.590;2023-08-12T07:28:01;3.88;;;2.30;;
29848;SDS011;16728;50.832;5.590;2023-08-12T07:31:03;3.67;;;2.15;;
29848;SDS011;16728;50.832;5.590;2023-08-12T07:34:05;4.20;;;2.20;;
29848;SDS011;16728;50.832;5.590;2023-08-12T07:37:07;3.35;;;2.40;;
29848;SDS011;16728;50.832;5.590;2023-08-12T07:40:09;3.63;;;2.50;;
29848;SDS011;16728;50.832;5.590;2023-08-12T07:43:11;3.85;;;2.72;;
29848;SDS011;16728;50.832;5.590;2023-08-12T07:46:13;3.45;;;2.53;;
29848;SDS011;16728;50.832;5.590;2023-08-12T07:49:16;4.72;;;2.97;;
29848;SDS011;16728;50.832;5.590;2023-08-12T07:52:18;4.28;;;3.00;;
29848;SDS011;16728;50.832;5.590;2023-08-12T07:55:19;3.65;;;2.95;;
29848;SDS011;16728;50.832;5.590;2023-08-12T07:58:23;3.83;;;2.90;;
29848;SDS011;16728;50.832;5.590;2023-08-12T08:01:25;5.13;;;3.30;;
29848;SDS011;16728;50.832;5.590;2023-08-12T08:04:27;3.50;;;2.78;;
29848;SDS011;16728;50.832;5.590;2023-08-12T08:07:31;2.70;;;2.50;;
29848;SDS011;16728;50.832;5.590;2023-08-12T08:10:33;4.72;;;2.90;;
29848;SDS011;16728;50.832;5.590;2023-08-12T08:13:35;7.10;;;2.97;;
29848;SDS011;16728;50.832;5.590;2023-08-12T08:16:38;3.05;;;2.63;;
29848;SDS011;16728;50.832;5.590;2023-08-12T08:19:42;3.92;;;2.63;;
29848;SDS011;16728;50.832;5.590;2023-08-12T08:22:46;3.75;;;2.42;;
29848;SDS011;16728;50.832;5.590;2023-08-12T08:25:48;3.05;;;2.42;;
29848;SDS011;16728;50.832;5.590;2023-08-12T08:29:12;2.83;;;2.20;;
29848;SDS011;16728;50.832;5.590;2023-08-12T08:32:14;2.60;;;2.25;;
29848;SDS011;16728;50.832;5.590;2023-08-12T08:35:31;2.20;;;2.00;;
29848;SDS011;16728;50.832;5.590;2023-08-12T08:38:33;5.50;;;1.83;;
29848;SDS011;16728;50.832;5.590;2023-08-12T08:41:38;4.80;;;1.95;;
29848;SDS011;16728;50.832;5.590;2023-08-12T08:44:41;2.40;;;1.80;;
29848;SDS011;16728;50.832;5.590;2023-08-12T08:47:43;2.50;;;1.27;;
29848;SDS011;16728;50.832;5.590;2023-08-12T08:50:49;1.48;;;1.15;;
29848;SDS011;16728;50.832;5.590;2023-08-12T08:53:54;2.97;;;1.15;;
29848;SDS011;16728;50.832;5.590;2023-08-12T08:57:02;1.52;;;1.00;;
29848;SDS011;16728;50.832;5.590;2023-08-12T09:00:14;1.00;;;0.90;;
29848;SDS011;16728;50.832;5.590;2023-08-12T09:03:19;1.50;;;0.90;;
29848;SDS011;16728;50.832;5.590;2023-08-12T09:06:24;5.32;;;0.82;;
29848;SDS011;16728;50.832;5.590;2023-08-12T09:09:27;0.63;;;0.60;;
29848;SDS011;16728;50.832;5.590;2023-08-12T09:12:29;0.85;;;0.60;;
29848;SDS011;16728;50.832;5.590;2023-08-12T09:15:32;2.70;;;0.77;;
29848;SDS011;16728;50.832;5.590;2023-08-12T09:18:36;0.67;;;0.63;;
29848;SDS011;16728;50.832;5.590;2023-08-12T09:21:41;1.23;;;0.65;;
29848;SDS011;16728;50.832;5.590;2023-08-12T09:24:45;0.63;;;0.50;;
29848;SDS011;16728;50.832;5.590;2023-08-12T09:27:58;0.55;;;0.40;;
29848;SDS011;16728;50.832;5.590;2023-08-12T09:31:01;0.82;;;0.70;;
29848;SDS011;16728;50.832;5.590;2023-08-12T09:34:11;1.40;;;0.52;;
29848;SDS011;16728;50.832;5.590;2023-08-12T09:37:15;0.60;;;0.50;;
29848;SDS011;16728;50.832;5.590;2023-08-12T09:40:17;0.52;;;0.47;;
29848;SDS011;16728;50.832;5.590;2023-08-12T09:43:23;0.45;;;0.43;;
29848;SDS011;16728;50.832;5.590;2023-08-12T09:46:26;2.30;;;0.55;;
29848;SDS011;16728;50.832;5.590;2023-08-12T09:49:29;0.65;;;0.50;;
29848;SDS011;16728;50.832;5.590;2023-08-12T09:52:31;1.17;;;0.40;;
29848;SDS011;16728;50.832;5.590;2023-08-12T09:56:04;0.68;;;0.68;;
29848;SDS011;16728;50.832;5.590;2023-08-12T09:59:09;0.70;;;0.50;;
29848;SDS011;16728;50.832;5.590;2023-08-12T10:02:16;1.50;;;0.60;;
29848;SDS011;16728;50.832;5.590;2023-08-12T10:05:30;1.33;;;0.40;;
29848;SDS011;16728;50.832;5.590;2023-08-12T10:11:37;1.20;;;0.43;;
29848;SDS011;16728;50.832;5.590;2023-08-12T10:14:39;0.43;;;0.40;;
29848;SDS011;16728;50.832;5.590;2023-08-12T10:17:44;0.73;;;0.50;;
29848;SDS011;16728;50.832;5.590;2023-08-12T10:20:50;0.95;;;0.40;;
29848;SDS011;16728;50.832;5.590;2023-08-12T10:24:12;0.50;;;0.40;;
29848;SDS011;16728;50.832;5.590;2023-08-12T10:27:23;1.17;;;0.50;;
29848;SDS011;16728;50.832;5.590;2023-08-12T10:30:34;1.10;;;1.00;;
29848;SDS011;16728;50.832;5.590;2023-08-12T10:33:36;2.25;;;1.35;;
29848;SDS011;16728;50.832;5.590;2023-08-12T10:36:41;2.15;;;1.77;;
29848;SDS011;16728;50.832;5.590;2023-08-12T10:40:03;2.08;;;1.52;;
29848;SDS011;16728;50.832;5.590;2023-08-12T10:43:53;1.75;;;1.40;;
29848;SDS011;16728;50.832;5.590;2023-08-12T10:47:17;2.47;;;1.17;;
29848;SDS011;16728;50.832;5.590;2023-08-12T10:50:22;1.52;;;1.20;;
29848;SDS011;16728;50.832;5.590;2023-08-12T10:53:39;6.45;;;1.67;;
29848;SDS011;16728;50.832;5.590;2023-08-12T11:00:05;2.08;;;1.10;;
29848;SDS011;16728;50.832;5.590;2023-08-12T11:03:12;3.38;;;1.50;;
29848;SDS011;16728;50.832;5.590;2023-08-12T11:06:15;3.33;;;1.80;;
29848;SDS011;16728;50.832;5.590;2023-08-12T11:09:17;1.90;;;1.48;;
29848;SDS011;16728;50.832;5.590;2023-08-12T11:12:30;1.60;;;1.48;;
29848;SDS011;16728;50.832;5.590;2023-08-12T11:15:47;1.90;;;1.55;;
29848;SDS011;16728;50.832;5.590;2023-08-12T11:18:57;1.63;;;1.50;;
29848;SDS011;16728;50.832;5.590;2023-08-12T11:22:00;4.10;;;2.13;;
29848;SDS011;16728;50.832;5.590;2023-08-12T11:25:15;2.75;;;1.75;;
29848;SDS011;16728;50.832;5.590;2023-08-12T11:28:21;2.60;;;2.40;;
29848;SDS011;16728;50.832;5.590;2023-08-12T11:31:23;3.67;;;2.92;;
29848;SDS011;16728;50.832;5.590;2023-08-12T11:34:25;2.38;;;1.60;;
29848;SDS011;16728;50.832;5.590;2023-08-12T11:37:37;2.55;;;1.67;;
29848;SDS011;16728;50.832;5.590;2023-08-12T11:40:41;2.88;;;1.30;;
29848;SDS011;16728;50.832;5.590;2023-08-12T11:43:51;2.97;;;1.25;;
29848;SDS011;16728;50.832;5.590;2023-08-12T11:46:53;4.57;;;1.45;;
29848;SDS011;16728;50.832;5.590;2023-08-12T11:50:02;1.58;;;1.48;;
29848;SDS011;16728;50.832;5.590;2023-08-12T11:53:13;2.35;;;1.60;;
29848;SDS011;16728;50.832;5.590;2023-08-12T11:56:16;3.47;;;1.33;;
29848;SDS011;16728;50.832;5.590;2023-08-12T11:59:32;1.20;;;1.00;;
29848;SDS011;16728;50.832;5.590;2023-08-12T12:06:01;3.42;;;1.20;;
29848;SDS011;16728;50.832;5.590;2023-08-12T12:09:13;1.92;;;0.82;;
29848;SDS011;16728;50.832;5.590;2023-08-12T12:12:16;6.35;;;1.27;;
29848;SDS011;16728;50.832;5.590;2023-08-12T12:15:18;2.85;;;0.95;;
29848;SDS011;16728;50.832;5.590;2023-08-12T12:18:20;1.52;;;1.00;;
29848;SDS011;16728;50.832;5.590;2023-08-12T12:21:22;0.90;;;0.63;;
29848;SDS011;16728;50.832;5.590;2023-08-12T12:24:28;1.73;;;0.63;;
29848;SDS011;16728;50.832;5.590;2023-08-12T12:27:31;1.38;;;0.82;;
29848;SDS011;16728;50.832;5.590;2023-08-12T12:30:35;2.75;;;0.93;;
29848;SDS011;16728;50.832;5.590;2023-08-12T12:33:38;1.98;;;1.00;;
29848;SDS011;16728;50.832;5.590;2023-08-12T12:36:45;3.60;;;0.95;;
29848;SDS011;16728;50.832;5.590;2023-08-12T12:39:55;1.08;;;0.70;;
29848;SDS011;16728;50.832;5.590;2023-08-12T12:42:57;6.07;;;0.90;;
29848;SDS011;16728;50.832;5.590;2023-08-12T12:46:00;1.83;;;0.80;;
29848;SDS011;16728;50.832;5.590;2023-08-12T12:49:02;2.80;;;0.80;;
29848;SDS011;16728;50.832;5.590;2023-08-12T12:52:04;2.95;;;0.88;;
29848;SDS011;16728;50.832;5.590;2023-08-12T12:55:06;2.75;;;1.08;;
29848;SDS011;16728;50.832;5.590;2023-08-12T12:58:09;7.75;;;0.90;;
29848;SDS011;16728;50.832;5.590;2023-08-12T13:04:14;3.05;;;0.95;;
29848;SDS011;16728;50.832;5.590;2023-08-12T13:07:16;2.53;;;1.30;;
29848;SDS011;16728;50.832;5.590;2023-08-12T13:10:18;1.73;;;1.23;;
29848;SDS011;16728;50.832;5.590;2023-08-12T13:13:20;1.30;;;0.85;;
29848;SDS011;16728;50.832;5.590;2023-08-12T13:16:22;2.50;;;1.25;;
29848;SDS011;16728;50.832;5.590;2023-08-12T13:19:24;4.35;;;1.50;;
29848;SDS011;16728;50.832;5.590;2023-08-12T13:22:28;1.80;;;0.93;;
29848;SDS011;16728;50.832;5.590;2023-08-12T13:25:31;1.60;;;1.20;;
29848;SDS011;16728;50.832;5.590;2023-08-12T13:28:37;2.85;;;1.00;;
29848;SDS011;16728;50.832;5.590;2023-08-12T13:32:05;2.70;;;1.10;;
29848;SDS011;16728;50.832;5.590;2023-08-12T13:35:07;2.95;;;1.20;;
29848;SDS011;16728;50.832;5.590;2023-08-12T13:38:09;3.00;;;1.33;;
29848;SDS011;16728;50.832;5.590;2023-08-12T13:41:11;2.47;;;1.65;;
29848;SDS011;16728;50.832;5.590;2023-08-12T13:44:13;2.95;;;1.50;;
29848;SDS011;16728;50.832;5.590;2023-08-12T13:47:15;4.13;;;1.63;;
29848;SDS011;16728;50.832;5.590;2023-08-12T13:50:17;5.22;;;1.98;;
29848;SDS011;16728;50.832;5.590;2023-08-12T13:53:19;3.08;;;2.00;;
29848;SDS011;16728;50.832;5.590;2023-08-12T13:56:21;5.80;;;2.20;;
29848;SDS011;16728;50.832;5.590;2023-08-12T13:59:24;6.57;;;1.73;;
29848;SDS011;16728;50.832;5.590;2023-08-12T14:02:27;5.30;;;1.40;;
29848;SDS011;16728;50.832;5.590;2023-08-12T14:05:30;7.75;;;1.60;;
29848;SDS011;16728;50.832;5.590;2023-08-12T14:08:31;5.93;;;2.15;;
29848;SDS011;16728;50.832;5.590;2023-08-12T14:11:47;3.42;;;1.90;;
29848;SDS011;16728;50.832;5.590;2023-08-12T14:14:49;3.47;;;2.42;;
29848;SDS011;16728;50.832;5.590;2023-08-12T14:17:51;4.72;;;2.47;;
29848;SDS011;16728;50.832;5.590;2023-08-12T14:20:53;3.15;;;2.20;;
29848;SDS011;16728;50.832;5.590;2023-08-12T14:24:02;4.05;;;2.22;;
29848;SDS011;16728;50.832;5.590;2023-08-12T14:27:04;4.75;;;2.20;;
29848;SDS011;16728;50.832;5.590;2023-08-12T14:30:06;3.35;;;1.50;;
29848;SDS011;16728;50.832;5.590;2023-08-12T14:33:09;3.53;;;1.48;;
29848;SDS011;16728;50.832;5.590;2023-08-12T14:36:11;3.80;;;1.77;;
29848;SDS011;16728;50.832;5.590;2023-08-12T14:39:17;2.53;;;1.50;;
29848;SDS011;16728;50.832;5.590;2023-08-12T14:42:19;5.13;;;1.73;;
29848;SDS011;16728;50.832;5.590;2023-08-12T14:45:21;3.55;;;1.65;;
29848;SDS011;16728;50.832;5.590;2023-08-12T14:48:23;2.10;;;1.00;;
29848;SDS011;16728;50.832;5.590;2023-08-12T14:51:24;5.80;;;1.90;;
29848;SDS011;16728;50.832;5.590;2023-08-12T14:54:27;3.58;;;1.20;;
29848;SDS011;16728;50.832;5.590;2023-08-12T14:57:29;3.17;;;1.30;;
29848;SDS011;16728;50.832;5.590;2023-08-12T15:00:31;4.70;;;1.48;;
29848;SDS011;16728;50.832;5.590;2023-08-12T15:03:47;2.80;;;1.00;;
29848;SDS011;16728;50.832;5.590;2023-08-12T15:06:49;5.68;;;1.23;;
29848;SDS011;16728;50.832;5.590;2023-08-12T15:09:51;3.72;;;1.20;;
29848;SDS011;16728;50.832;5.590;2023-08-12T15:12:56;1.48;;;1.10;;
29848;SDS011;16728;50.832;5.590;2023-08-12T15:15:58;2.08;;;1.00;;
29848;SDS011;16728;50.832;5.590;2023-08-12T15:19:00;5.33;;;1.43;;
29848;SDS011;16728;50.832;5.590;2023-08-12T15:22:03;3.75;;;1.17;;
29848;SDS011;16728;50.832;5.590;2023-08-12T15:25:05;3.53;;;1.20;;
29848;SDS011;16728;50.832;5.590;2023-08-12T15:28:07;3.03;;;1.10;;
29848;SDS011;16728;50.832;5.590;2023-08-12T15:31:12;3.50;;;1.50;;
29848;SDS011;16728;50.832;5.590;2023-08-12T15:34:16;5.40;;;1.33;;
29848;SDS011;16728;50.832;5.590;2023-08-12T15:37:18;3.30;;;1.33;;
29848;SDS011;16728;50.832;5.590;2023-08-12T15:40:21;4.35;;;1.20;;
29848;SDS011;16728;50.832;5.590;2023-08-12T15:43:23;3.05;;;1.60;;
29848;SDS011;16728;50.832;5.590;2023-08-12T15:46:25;3.80;;;1.60;;
29848;SDS011;16728;50.832;5.590;2023-08-12T15:49:30;3.08;;;1.50;;
29848;SDS011;16728;50.832;5.590;2023-08-12T15:52:34;3.83;;;1.50;;
29848;SDS011;16728;50.832;5.590;2023-08-12T15:55:50;7.07;;;1.88;;
29848;SDS011;16728;50.832;5.590;2023-08-12T15:58:51;6.38;;;1.67;;
29848;SDS011;16728;50.832;5.590;2023-08-12T16:01:53;2.85;;;1.50;;
29848;SDS011;16728;50.832;5.590;2023-08-12T16:04:55;4.38;;;1.90;;
29848;SDS011;16728;50.832;5.590;2023-08-12T16:07:57;5.78;;;1.92;;
29848;SDS011;16728;50.832;5.590;2023-08-12T16:10:59;4.32;;;1.88;;
29848;SDS011;16728;50.832;5.590;2023-08-12T16:14:01;4.25;;;1.95;;
29848;SDS011;16728;50.832;5.590;2023-08-12T16:17:12;5.97;;;2.17;;
29848;SDS011;16728;50.832;5.590;2023-08-12T16:20:21;4.72;;;2.28;;
29848;SDS011;16728;50.832;5.590;2023-08-12T16:23:25;2.53;;;1.58;;
29848;SDS011;16728;50.832;5.590;2023-08-12T16:26:27;4.70;;;2.03;;
29848;SDS011;16728;50.832;5.590;2023-08-12T16:29:29;5.88;;;1.83;;
29848;SDS011;16728;50.832;5.590;2023-08-12T16:32:45;3.70;;;1.67;;
29848;SDS011;16728;50.832;5.590;2023-08-12T16:36:07;6.87;;;1.40;;
29848;SDS011;16728;50.832;5.590;2023-08-12T16:39:15;4.18;;;1.30;;
29848;SDS011;16728;50.832;5.590;2023-08-12T16:42:27;3.15;;;1.60;;
29848;SDS011;16728;50.832;5.590;2023-08-12T16:45:29;6.22;;;2.00;;
29848;SDS011;16728;50.832;5.590;2023-08-12T16:48:44;4.38;;;1.42;;
29848;SDS011;16728;50.832;5.590;2023-08-12T16:51:52;3.85;;;1.60;;
29848;SDS011;16728;50.832;5.590;2023-08-12T16:55:01;3.95;;;1.67;;
29848;SDS011;16728;50.832;5.590;2023-08-12T16:58:14;3.20;;;1.15;;
29848;SDS011;16728;50.832;5.590;2023-08-12T17:01:29;7.72;;;1.27;;
29848;SDS011;16728;50.832;5.590;2023-08-12T17:04:49;3.55;;;1.40;;
29848;SDS011;16728;50.832;5.590;2023-08-12T17:07:51;4.07;;;1.40;;
29848;SDS011;16728;50.832;5.590;2023-08-12T17:10:53;5.32;;;1.45;;
29848;SDS011;16728;50.832;5.590;2023-08-12T17:13:55;3.22;;;1.20;;
29848;SDS011;16728;50.832;5.590;2023-08-12T17:16:58;3.58;;;1.40;;
29848;SDS011;16728;50.832;5.590;2023-08-12T17:20:00;4.75;;;1.50;;
29848;SDS011;16728;50.832;5.590;2023-08-12T17:23:02;2.65;;;1.17;;
29848;SDS011;16728;50.832;5.590;2023-08-12T17:26:04;5.25;;;1.50;;
29848;SDS011;16728;50.832;5.590;2023-08-12T17:29:06;4.88;;;1.75;;
29848;SDS011;16728;50.832;5.590;2023-08-12T17:32:11;5.50;;;1.52;;
29848;SDS011;16728;50.832;5.590;2023-08-12T17:35:13;4.30;;;1.70;;
29848;SDS011;16728;50.832;5.590;2023-08-12T17:38:15;5.78;;;2.22;;
29848;SDS011;16728;50.832;5.590;2023-08-12T17:41:17;4.88;;;1.60;;
29848;SDS011;16728;50.832;5.590;2023-08-12T17:44:19;4.13;;;1.70;;
29848;SDS011;16728;50.832;5.590;2023-08-12T17:47:21;4.88;;;1.85;;
29848;SDS011;16728;50.832;5.590;2023-08-12T17:50:23;4.00;;;1.40;;
29848;SDS011;16728;50.832;5.590;2023-08-12T17:53:26;6.93;;;1.90;;
29848;SDS011;16728;50.832;5.590;2023-08-12T17:56:28;4.00;;;1.58;;
29848;SDS011;16728;50.832;5.590;2023-08-12T17:59:29;3.83;;;1.90;;
29848;SDS011;16728;50.832;5.590;2023-08-12T18:02:47;2.00;;;1.67;;
29848;SDS011;16728;50.832;5.590;2023-08-12T18:05:49;4.63;;;1.92;;
29848;SDS011;16728;50.832;5.590;2023-08-12T18:08:52;3.22;;;1.60;;
29848;SDS011;16728;50.832;5.590;2023-08-12T18:11:54;9.95;;;2.13;;
29848;SDS011;16728;50.832;5.590;2023-08-12T18:14:56;4.85;;;1.42;;
29848;SDS011;16728;50.832;5.590;2023-08-12T18:18:00;5.40;;;1.90;;
29848;SDS011;16728;50.832;5.590;2023-08-12T18:21:14;7.72;;;3.00;;
29848;SDS011;16728;50.832;5.590;2023-08-12T18:27:41;3.53;;;1.90;;
29848;SDS011;16728;50.832;5.590;2023-08-12T18:30:43;6.65;;;2.72;;
29848;SDS011;16728;50.832;5.590;2023-08-12T18:33:45;8.32;;;2.75;;
29848;SDS011;16728;50.832;5.590;2023-08-12T18:36:46;5.20;;;2.20;;
29848;SDS011;16728;50.832;5.590;2023-08-12T18:39:49;6.13;;;2.15;;